sensor_id;sensor_type;location;lat;lon;timestamp;P1;durP1;ratioP1;P2;durP2;ratioP2
24233;SDS011;12365;43.554;1.388;2022-10-22T00:01:38;6.45;;;1.08;;
24233;SDS011;12365;43.554;1.388;2022-10-22T00:04:04;5.47;;;1.10;;
24233;SDS011;12365;43.554;1.388;2022-10-22T00:06:30;2.70;;;1.00;;
24233;SDS011;12365;43.554;1.388;2022-10-22T00:08:55;4.38;;;1.02;;
24233;SDS011;12365;43.554;1.388;2022-10-22T00:11:20;1.90;;;0.95;;
24233;SDS011;12365;43.554;1.388;2022-10-22T00:13:46;4.05;;;1.02;;
24233;SDS011;12365;43.554;1.388;2022-10-22T00:16:12;5.30;;;1.10;;
24233;SDS011;12365;43.554;1.388;2022-10-22T00:18:38;3.10;;;1.13;;
24233;SDS011;12365;43.554;1.388;2022-10-22T00:21:04;5.72;;;1.13;;
24233;SDS011;12365;43.554;1.388;2022-10-22T00:23:30;5.32;;;1.23;;
24233;SDS011;12365;43.554;1.388;2022-10-22T00:25:56;5.55;;;1.27;;
24233;SDS011;12365;43.554;1.388;2022-10-22T00:28:22;5.53;;;1.30;;
24233;SDS011;12365;43.554;1.388;2022-10-22T00:30:54;3.33;;;1.10;;
24233;SDS011;12365;43.554;1.388;2022-10-22T00:33:23;5.93;;;1.20;;
24233;SDS011;12365;43.554;1.388;2022-10-22T00:35:49;3.83;;;1.15;;
24233;SDS011;12365;43.554;1.388;2022-10-22T00:38:15;5.25;;;1.10;;
24233;SDS011;12365;43.554;1.388;2022-10-22T00:40:40;3.67;;;1.27;;
24233;SDS011;12365;43.554;1.388;2022-10-22T00:43:09;5.40;;;1.40;;
24233;SDS011;12365;43.554;1.388;2022-10-22T00:45:35;3.85;;;1.20;;
24233;SDS011;12365;43.554;1.388;2022-10-22T00:48:03;3.53;;;1.20;;
24233;SDS011;12365;43.554;1.388;2022-10-22T00:50:47;3.17;;;1.10;;
24233;SDS011;12365;43.554;1.388;2022-10-22T00:53:26;5.63;;;1.23;;
24233;SDS011;12365;43.554;1.388;2022-10-22T00:55:55;4.78;;;1.52;;
24233;SDS011;12365;43.554;1.388;2022-10-22T00:58:22;2.67;;;0.80;;
24233;SDS011;12365;43.554;1.388;2022-10-22T01:00:50;3.95;;;1.27;;
24233;SDS011;12365;43.554;1.388;2022-10-22T01:03:15;2.13;;;1.00;;
24233;SDS011;12365;43.554;1.388;2022-10-22T01:05:48;2.83;;;1.00;;
24233;SDS011;12365;43.554;1.388;2022-10-22T01:08:42;5.82;;;1.00;;
24233;SDS011;12365;43.554;1.388;2022-10-22T01:16:26;2.25;;;1.02;;
24233;SDS011;12365;43.554;1.388;2022-10-22T01:22:00;2.05;;;0.90;;
24233;SDS011;12365;43.554;1.388;2022-10-22T01:27:23;4.60;;;1.25;;
24233;SDS011;12365;43.554;1.388;2022-10-22T01:29:50;2.45;;;1.10;;
24233;SDS011;12365;43.554;1.388;2022-10-22T01:32:22;1.98;;;0.95;;
24233;SDS011;12365;43.554;1.388;2022-10-22T01:34:51;3.55;;;1.23;;
24233;SDS011;12365;43.554;1.388;2022-10-22T01:37:21;3.25;;;1.40;;
24233;SDS011;12365;43.554;1.388;2022-10-22T01:39:50;3.47;;;1.13;;
24233;SDS011;12365;43.554;1.388;2022-10-22T01:42:17;5.63;;;1.17;;
24233;SDS011;12365;43.554;1.388;2022-10-22T01:44:42;9.38;;;1.40;;
24233;SDS011;12365;43.554;1.388;2022-10-22T01:55:51;4.32;;;1.17;;
24233;SDS011;12365;43.554;1.388;2022-10-22T01:58:28;4.25;;;1.20;;
24233;SDS011;12365;43.554;1.388;2022-10-22T02:01:06;4.00;;;1.27;;
24233;SDS011;12365;43.554;1.388;2022-10-22T02:03:40;3.13;;;1.20;;
24233;SDS011;12365;43.554;1.388;2022-10-22T02:06:16;4.53;;;1.20;;
24233;SDS011;12365;43.554;1.388;2022-10-22T02:08:45;5.30;;;1.20;;
24233;SDS011;12365;43.554;1.388;2022-10-22T02:11:12;3.65;;;1.40;;
24233;SDS011;12365;43.554;1.388;2022-10-22T02:13:40;3.10;;;1.35;;
24233;SDS011;12365;43.554;1.388;2022-10-22T02:16:11;2.85;;;1.27;;
24233;SDS011;12365;43.554;1.388;2022-10-22T02:18:41;4.63;;;1.35;;
24233;SDS011;12365;43.554;1.388;2022-10-22T02:21:09;4.32;;;1.15;;
24233;SDS011;12365;43.554;1.388;2022-10-22T02:23:34;4.38;;;1.08;;
24233;SDS011;12365;43.554;1.388;2022-10-22T02:26:02;3.78;;;1.30;;
24233;SDS011;12365;43.554;1.388;2022-10-22T02:28:55;3.05;;;1.20;;
24233;SDS011;12365;43.554;1.388;2022-10-22T02:31:27;1.80;;;1.17;;
24233;SDS011;12365;43.554;1.388;2022-10-22T02:33:56;2.88;;;1.10;;
24233;SDS011;12365;43.554;1.388;2022-10-22T02:36:28;4.63;;;1.20;;
24233;SDS011;12365;43.554;1.388;2022-10-22T02:38:55;2.55;;;1.30;;
24233;SDS011;12365;43.554;1.388;2022-10-22T02:41:20;7.10;;;1.20;;
24233;SDS011;12365;43.554;1.388;2022-10-22T02:43:49;5.00;;;1.15;;
24233;SDS011;12365;43.554;1.388;2022-10-22T02:46:17;2.88;;;1.10;;
24233;SDS011;12365;43.554;1.388;2022-10-22T02:48:42;7.20;;;1.50;;
24233;SDS011;12365;43.554;1.388;2022-10-22T02:51:08;2.30;;;1.20;;
24233;SDS011;12365;43.554;1.388;2022-10-22T02:53:33;2.70;;;1.15;;
24233;SDS011;12365;43.554;1.388;2022-10-22T02:55:59;3.22;;;1.30;;
24233;SDS011;12365;43.554;1.388;2022-10-22T02:58:24;5.25;;;1.50;;
24233;SDS011;12365;43.554;1.388;2022-10-22T03:00:49;1.58;;;0.98;;
24233;SDS011;12365;43.554;1.388;2022-10-22T03:03:15;1.83;;;1.00;;
24233;SDS011;12365;43.554;1.388;2022-10-22T03:05:40;3.13;;;1.30;;
24233;SDS011;12365;43.554;1.388;2022-10-22T03:08:06;3.85;;;1.17;;
24233;SDS011;12365;43.554;1.388;2022-10-22T03:10:31;5.15;;;1.27;;
24233;SDS011;12365;43.554;1.388;2022-10-22T03:12:57;2.38;;;1.20;;
24233;SDS011;12365;43.554;1.388;2022-10-22T03:15:22;2.95;;;1.13;;
24233;SDS011;12365;43.554;1.388;2022-10-22T03:17:47;3.47;;;1.05;;
24233;SDS011;12365;43.554;1.388;2022-10-22T03:20:13;3.17;;;1.00;;
24233;SDS011;12365;43.554;1.388;2022-10-22T03:22:38;3.90;;;1.38;;
24233;SDS011;12365;43.554;1.388;2022-10-22T03:25:06;3.55;;;1.20;;
24233;SDS011;12365;43.554;1.388;2022-10-22T03:27:36;2.40;;;1.20;;
24233;SDS011;12365;43.554;1.388;2022-10-22T03:30:04;5.50;;;1.33;;
24233;SDS011;12365;43.554;1.388;2022-10-22T03:32:30;3.90;;;1.20;;
24233;SDS011;12365;43.554;1.388;2022-10-22T03:34:56;3.08;;;1.30;;
24233;SDS011;12365;43.554;1.388;2022-10-22T03:37:22;3.75;;;1.20;;
24233;SDS011;12365;43.554;1.388;2022-10-22T03:39:49;2.00;;;1.02;;
24233;SDS011;12365;43.554;1.388;2022-10-22T03:42:15;3.60;;;1.10;;
24233;SDS011;12365;43.554;1.388;2022-10-22T03:44:41;3.22;;;1.30;;
24233;SDS011;12365;43.554;1.388;2022-10-22T03:47:07;2.70;;;1.20;;
24233;SDS011;12365;43.554;1.388;2022-10-22T03:49:32;2.83;;;1.13;;
24233;SDS011;12365;43.554;1.388;2022-10-22T03:52:03;2.50;;;1.17;;
24233;SDS011;12365;43.554;1.388;2022-10-22T03:54:30;3.80;;;1.23;;
24233;SDS011;12365;43.554;1.388;2022-10-22T03:56:55;5.53;;;1.30;;
24233;SDS011;12365;43.554;1.388;2022-10-22T03:59:20;2.47;;;1.25;;
24233;SDS011;12365;43.554;1.388;2022-10-22T04:01:46;7.05;;;1.50;;
24233;SDS011;12365;43.554;1.388;2022-10-22T04:04:11;4.10;;;1.30;;
24233;SDS011;12365;43.554;1.388;2022-10-22T04:06:36;2.55;;;1.40;;
24233;SDS011;12365;43.554;1.388;2022-10-22T04:09:02;4.00;;;1.60;;
24233;SDS011;12365;43.554;1.388;2022-10-22T04:11:27;3.78;;;1.55;;
24233;SDS011;12365;43.554;1.388;2022-10-22T04:13:53;2.67;;;1.27;;
24233;SDS011;12365;43.554;1.388;2022-10-22T04:16:19;6.57;;;1.30;;
24233;SDS011;12365;43.554;1.388;2022-10-22T04:18:46;3.05;;;1.30;;
24233;SDS011;12365;43.554;1.388;2022-10-22T04:21:14;2.83;;;1.27;;
24233;SDS011;12365;43.554;1.388;2022-10-22T04:23:45;4.70;;;1.65;;
24233;SDS011;12365;43.554;1.388;2022-10-22T04:26:11;2.75;;;1.30;;
24233;SDS011;12365;43.554;1.388;2022-10-22T04:28:37;4.07;;;1.58;;
24233;SDS011;12365;43.554;1.388;2022-10-22T04:31:12;3.70;;;1.40;;
24233;SDS011;12365;43.554;1.388;2022-10-22T04:33:40;3.35;;;1.48;;
24233;SDS011;12365;43.554;1.388;2022-10-22T04:36:16;6.13;;;1.55;;
24233;SDS011;12365;43.554;1.388;2022-10-22T04:38:42;5.05;;;1.38;;
24233;SDS011;12365;43.554;1.388;2022-10-22T04:43:38;5.65;;;1.60;;
24233;SDS011;12365;43.554;1.388;2022-10-22T04:46:04;6.20;;;1.50;;
24233;SDS011;12365;43.554;1.388;2022-10-22T04:48:29;4.30;;;1.35;;
24233;SDS011;12365;43.554;1.388;2022-10-22T04:50:56;2.75;;;1.40;;
24233;SDS011;12365;43.554;1.388;2022-10-22T04:53:22;5.03;;;1.35;;
24233;SDS011;12365;43.554;1.388;2022-10-22T04:55:47;3.45;;;1.38;;
24233;SDS011;12365;43.554;1.388;2022-10-22T04:58:13;2.83;;;1.20;;
24233;SDS011;12365;43.554;1.388;2022-10-22T05:00:38;4.85;;;1.48;;
24233;SDS011;12365;43.554;1.388;2022-10-22T05:03:03;3.88;;;1.48;;
24233;SDS011;12365;43.554;1.388;2022-10-22T05:05:29;4.93;;;1.67;;
24233;SDS011;12365;43.554;1.388;2022-10-22T05:07:54;4.25;;;1.60;;
24233;SDS011;12365;43.554;1.388;2022-10-22T05:10:19;4.50;;;1.80;;
24233;SDS011;12365;43.554;1.388;2022-10-22T05:12:45;3.97;;;1.80;;
24233;SDS011;12365;43.554;1.388;2022-10-22T05:15:10;3.08;;;1.50;;
24233;SDS011;12365;43.554;1.388;2022-10-22T05:17:35;4.50;;;1.73;;
24233;SDS011;12365;43.554;1.388;2022-10-22T05:20:01;6.22;;;1.65;;
24233;SDS011;12365;43.554;1.388;2022-10-22T05:22:30;3.22;;;1.55;;
24233;SDS011;12365;43.554;1.388;2022-10-22T05:24:57;6.55;;;1.50;;
24233;SDS011;12365;43.554;1.388;2022-10-22T05:27:23;2.33;;;1.30;;
24233;SDS011;12365;43.554;1.388;2022-10-22T05:29:49;3.95;;;1.52;;
24233;SDS011;12365;43.554;1.388;2022-10-22T05:32:14;3.17;;;1.67;;
24233;SDS011;12365;43.554;1.388;2022-10-22T05:34:40;4.97;;;1.95;;
24233;SDS011;12365;43.554;1.388;2022-10-22T05:37:05;4.32;;;1.55;;
24233;SDS011;12365;43.554;1.388;2022-10-22T05:39:30;5.97;;;1.77;;
24233;SDS011;12365;43.554;1.388;2022-10-22T05:41:56;5.05;;;1.60;;
24233;SDS011;12365;43.554;1.388;2022-10-22T05:44:22;6.28;;;1.77;;
24233;SDS011;12365;43.554;1.388;2022-10-22T05:46:47;5.35;;;1.88;;
24233;SDS011;12365;43.554;1.388;2022-10-22T05:49:13;2.65;;;1.40;;
24233;SDS011;12365;43.554;1.388;2022-10-22T05:51:40;5.38;;;1.80;;
24233;SDS011;12365;43.554;1.388;2022-10-22T05:54:06;6.03;;;1.75;;
24233;SDS011;12365;43.554;1.388;2022-10-22T05:56:32;5.25;;;1.95;;
24233;SDS011;12365;43.554;1.388;2022-10-22T05:58:59;3.95;;;1.88;;
24233;SDS011;12365;43.554;1.388;2022-10-22T06:01:25;6.60;;;2.00;;
24233;SDS011;12365;43.554;1.388;2022-10-22T06:03:53;4.30;;;1.73;;
24233;SDS011;12365;43.554;1.388;2022-10-22T06:06:40;4.38;;;1.80;;
24233;SDS011;12365;43.554;1.388;2022-10-22T06:09:16;6.70;;;1.73;;
24233;SDS011;12365;43.554;1.388;2022-10-22T06:11:44;4.43;;;1.77;;
24233;SDS011;12365;43.554;1.388;2022-10-22T06:14:11;3.92;;;1.60;;
24233;SDS011;12365;43.554;1.388;2022-10-22T06:16:37;3.83;;;1.70;;
24233;SDS011;12365;43.554;1.388;2022-10-22T06:19:02;8.98;;;1.83;;
24233;SDS011;12365;43.554;1.388;2022-10-22T06:21:28;4.95;;;1.58;;
24233;SDS011;12365;43.554;1.388;2022-10-22T06:23:55;3.42;;;1.63;;
24233;SDS011;12365;43.554;1.388;2022-10-22T06:26:21;3.75;;;1.70;;
24233;SDS011;12365;43.554;1.388;2022-10-22T06:28:46;6.47;;;1.77;;
24233;SDS011;12365;43.554;1.388;2022-10-22T06:31:12;7.00;;;1.75;;
24233;SDS011;12365;43.554;1.388;2022-10-22T06:33:38;4.47;;;1.70;;
24233;SDS011;12365;43.554;1.388;2022-10-22T06:36:28;4.88;;;1.83;;
24233;SDS011;12365;43.554;1.388;2022-10-22T06:38:53;4.38;;;1.70;;
24233;SDS011;12365;43.554;1.388;2022-10-22T06:41:20;4.40;;;1.88;;
24233;SDS011;12365;43.554;1.388;2022-10-22T06:43:46;5.60;;;1.67;;
24233;SDS011;12365;43.554;1.388;2022-10-22T06:46:13;4.38;;;1.83;;
24233;SDS011;12365;43.554;1.388;2022-10-22T06:48:40;5.22;;;2.30;;
24233;SDS011;12365;43.554;1.388;2022-10-22T06:51:07;4.25;;;1.70;;
24233;SDS011;12365;43.554;1.388;2022-10-22T06:53:34;4.55;;;1.70;;
24233;SDS011;12365;43.554;1.388;2022-10-22T06:56:07;5.03;;;1.60;;
24233;SDS011;12365;43.554;1.388;2022-10-22T06:58:35;5.10;;;1.75;;
24233;SDS011;12365;43.554;1.388;2022-10-22T07:01:01;6.03;;;1.60;;
24233;SDS011;12365;43.554;1.388;2022-10-22T07:03:35;5.90;;;2.00;;
24233;SDS011;12365;43.554;1.388;2022-10-22T07:06:02;5.75;;;2.25;;
24233;SDS011;12365;43.554;1.388;2022-10-22T07:08:29;5.30;;;2.00;;
24233;SDS011;12365;43.554;1.388;2022-10-22T07:10:55;6.63;;;2.03;;
24233;SDS011;12365;43.554;1.388;2022-10-22T07:13:22;10.05;;;2.03;;
24233;SDS011;12365;43.554;1.388;2022-10-22T07:15:51;6.35;;;1.92;;
24233;SDS011;12365;43.554;1.388;2022-10-22T07:18:18;6.18;;;2.40;;
24233;SDS011;12365;43.554;1.388;2022-10-22T07:20:44;7.78;;;2.42;;
24233;SDS011;12365;43.554;1.388;2022-10-22T07:23:10;8.13;;;2.28;;
24233;SDS011;12365;43.554;1.388;2022-10-22T07:25:36;3.67;;;2.03;;
24233;SDS011;12365;43.554;1.388;2022-10-22T07:28:01;6.47;;;2.40;;
24233;SDS011;12365;43.554;1.388;2022-10-22T07:30:26;6.97;;;2.10;;
24233;SDS011;12365;43.554;1.388;2022-10-22T07:32:52;5.10;;;2.10;;
24233;SDS011;12365;43.554;1.388;2022-10-22T07:35:17;4.22;;;2.00;;
24233;SDS011;12365;43.554;1.388;2022-10-22T07:37:42;3.63;;;1.98;;
24233;SDS011;12365;43.554;1.388;2022-10-22T07:40:08;3.65;;;1.88;;
24233;SDS011;12365;43.554;1.388;2022-10-22T07:42:34;6.68;;;2.08;;
24233;SDS011;12365;43.554;1.388;2022-10-22T07:44:59;6.22;;;2.00;;
24233;SDS011;12365;43.554;1.388;2022-10-22T07:47:24;10.55;;;2.30;;
24233;SDS011;12365;43.554;1.388;2022-10-22T07:49:50;4.97;;;2.17;;
24233;SDS011;12365;43.554;1.388;2022-10-22T07:52:15;5.45;;;2.05;;
24233;SDS011;12365;43.554;1.388;2022-10-22T07:54:40;7.28;;;2.20;;
24233;SDS011;12365;43.554;1.388;2022-10-22T07:57:06;4.65;;;2.20;;
24233;SDS011;12365;43.554;1.388;2022-10-22T07:59:31;8.45;;;2.15;;
24233;SDS011;12365;43.554;1.388;2022-10-22T08:01:56;10.13;;;2.10;;
24233;SDS011;12365;43.554;1.388;2022-10-22T08:04:22;7.53;;;2.33;;
24233;SDS011;12365;43.554;1.388;2022-10-22T08:06:47;6.03;;;2.53;;
24233;SDS011;12365;43.554;1.388;2022-10-22T08:09:13;4.75;;;2.10;;
24233;SDS011;12365;43.554;1.388;2022-10-22T08:11:38;4.97;;;2.30;;
24233;SDS011;12365;43.554;1.388;2022-10-22T08:14:03;4.40;;;2.30;;
24233;SDS011;12365;43.554;1.388;2022-10-22T08:16:29;6.30;;;2.28;;
24233;SDS011;12365;43.554;1.388;2022-10-22T08:18:54;5.43;;;2.33;;
24233;SDS011;12365;43.554;1.388;2022-10-22T08:21:19;4.95;;;2.08;;
24233;SDS011;12365;43.554;1.388;2022-10-22T08:23:45;5.18;;;2.20;;
24233;SDS011;12365;43.554;1.388;2022-10-22T08:26:10;7.40;;;2.40;;
24233;SDS011;12365;43.554;1.388;2022-10-22T08:28:35;9.50;;;2.10;;
24233;SDS011;12365;43.554;1.388;2022-10-22T08:31:05;6.32;;;2.25;;
24233;SDS011;12365;43.554;1.388;2022-10-22T08:33:32;5.38;;;2.05;;
24233;SDS011;12365;43.554;1.388;2022-10-22T08:35:58;7.75;;;1.90;;
24233;SDS011;12365;43.554;1.388;2022-10-22T08:38:23;6.57;;;2.38;;
24233;SDS011;12365;43.554;1.388;2022-10-22T08:40:50;6.25;;;2.28;;
24233;SDS011;12365;43.554;1.388;2022-10-22T08:48:53;7.70;;;2.20;;
24233;SDS011;12365;43.554;1.388;2022-10-22T08:51:23;6.75;;;2.03;;
24233;SDS011;12365;43.554;1.388;2022-10-22T08:56:43;4.20;;;1.63;;
24233;SDS011;12365;43.554;1.388;2022-10-22T08:59:16;5.03;;;1.40;;
24233;SDS011;12365;43.554;1.388;2022-10-22T09:01:48;5.75;;;1.58;;
24233;SDS011;12365;43.554;1.388;2022-10-22T09:04:24;3.42;;;1.63;;
24233;SDS011;12365;43.554;1.388;2022-10-22T09:06:55;7.28;;;1.80;;
24233;SDS011;12365;43.554;1.388;2022-10-22T09:09:23;3.83;;;1.42;;
24233;SDS011;12365;43.554;1.388;2022-10-22T09:11:51;5.07;;;1.60;;
24233;SDS011;12365;43.554;1.388;2022-10-22T09:14:21;3.45;;;1.38;;
24233;SDS011;12365;43.554;1.388;2022-10-22T09:19:39;4.05;;;1.50;;
24233;SDS011;12365;43.554;1.388;2022-10-22T09:22:50;4.80;;;1.60;;
24233;SDS011;12365;43.554;1.388;2022-10-22T09:25:32;5.85;;;1.42;;
24233;SDS011;12365;43.554;1.388;2022-10-22T09:28:00;4.80;;;1.35;;
24233;SDS011;12365;43.554;1.388;2022-10-22T09:30:33;3.97;;;1.58;;
24233;SDS011;12365;43.554;1.388;2022-10-22T09:35:32;3.47;;;1.20;;
24233;SDS011;12365;43.554;1.388;2022-10-22T09:38:02;3.78;;;1.40;;
24233;SDS011;12365;43.554;1.388;2022-10-22T09:40:31;6.40;;;1.20;;
24233;SDS011;12365;43.554;1.388;2022-10-22T09:43:08;5.45;;;1.55;;
24233;SDS011;12365;43.554;1.388;2022-10-22T09:45:38;5.43;;;1.33;;
24233;SDS011;12365;43.554;1.388;2022-10-22T09:48:11;5.05;;;1.42;;
24233;SDS011;12365;43.554;1.388;2022-10-22T09:51:02;7.18;;;1.58;;
24233;SDS011;12365;43.554;1.388;2022-10-22T09:53:40;4.97;;;1.27;;
24233;SDS011;12365;43.554;1.388;2022-10-22T09:56:33;4.35;;;1.40;;
24233;SDS011;12365;43.554;1.388;2022-10-22T09:58:54;4.03;;;1.50;;
24233;SDS011;12365;43.554;1.388;2022-10-22T10:01:23;3.33;;;1.60;;
24233;SDS011;12365;43.554;1.388;2022-10-22T10:03:50;4.43;;;1.70;;
24233;SDS011;12365;43.554;1.388;2022-10-22T10:06:17;5.47;;;1.63;;
24233;SDS011;12365;43.554;1.388;2022-10-22T10:08:44;5.65;;;1.35;;
24233;SDS011;12365;43.554;1.388;2022-10-22T10:11:13;6.97;;;1.40;;
24233;SDS011;12365;43.554;1.388;2022-10-22T10:16:29;4.28;;;1.40;;
24233;SDS011;12365;43.554;1.388;2022-10-22T10:19:19;1.90;;;0.90;;
24233;SDS011;12365;43.554;1.388;2022-10-22T10:22:01;2.75;;;1.05;;
24233;SDS011;12365;43.554;1.388;2022-10-22T10:30:05;5.38;;;1.30;;
24233;SDS011;12365;43.554;1.388;2022-10-22T10:49:40;5.87;;;1.80;;
24233;SDS011;12365;43.554;1.388;2022-10-22T10:55:12;4.72;;;1.10;;
24233;SDS011;12365;43.554;1.388;2022-10-22T11:00:31;4.90;;;1.40;;
24233;SDS011;12365;43.554;1.388;2022-10-22T11:05:59;5.35;;;1.60;;
24233;SDS011;12365;43.554;1.388;2022-10-22T11:08:38;9.63;;;2.28;;
24233;SDS011;12365;43.554;1.388;2022-10-22T11:13:42;9.15;;;2.10;;
24233;SDS011;12365;43.554;1.388;2022-10-22T11:16:39;9.27;;;2.30;;
24233;SDS011;12365;43.554;1.388;2022-10-22T11:19:22;8.15;;;1.98;;
24233;SDS011;12365;43.554;1.388;2022-10-22T11:22:18;11.80;;;2.33;;
24233;SDS011;12365;43.554;1.388;2022-10-22T11:30:21;14.02;;;2.75;;
24233;SDS011;12365;43.554;1.388;2022-10-22T11:32:50;11.20;;;2.45;;
24233;SDS011;12365;43.554;1.388;2022-10-22T11:35:19;8.00;;;2.20;;
24233;SDS011;12365;43.554;1.388;2022-10-22T11:37:49;7.72;;;2.35;;
24233;SDS011;12365;43.554;1.388;2022-10-22T11:40:20;13.38;;;2.50;;
24233;SDS011;12365;43.554;1.388;2022-10-22T11:43:10;9.43;;;2.60;;
24233;SDS011;12365;43.554;1.388;2022-10-22T11:49:03;7.63;;;2.30;;
24233;SDS011;12365;43.554;1.388;2022-10-22T11:51:41;6.68;;;2.35;;
24233;SDS011;12365;43.554;1.388;2022-10-22T11:54:27;10.90;;;2.45;;
24233;SDS011;12365;43.554;1.388;2022-10-22T11:59:40;14.75;;;2.78;;
24233;SDS011;12365;43.554;1.388;2022-10-22T12:04:49;6.75;;;2.30;;
24233;SDS011;12365;43.554;1.388;2022-10-22T12:07:31;13.45;;;2.50;;
24233;SDS011;12365;43.554;1.388;2022-10-22T12:09:58;8.98;;;2.35;;
24233;SDS011;12365;43.554;1.388;2022-10-22T12:12:24;13.57;;;2.60;;
24233;SDS011;12365;43.554;1.388;2022-10-22T12:14:53;11.15;;;2.42;;
24233;SDS011;12365;43.554;1.388;2022-10-22T12:17:21;15.55;;;2.80;;
24233;SDS011;12365;43.554;1.388;2022-10-22T12:20:20;8.00;;;2.17;;
24233;SDS011;12365;43.554;1.388;2022-10-22T12:22:39;7.68;;;2.15;;
24233;SDS011;12365;43.554;1.388;2022-10-22T12:25:11;11.75;;;2.50;;
24233;SDS011;12365;43.554;1.388;2022-10-22T12:27:41;6.32;;;2.30;;
24233;SDS011;12365;43.554;1.388;2022-10-22T12:30:26;9.55;;;2.22;;
24233;SDS011;12365;43.554;1.388;2022-10-22T12:32:55;7.68;;;2.30;;
24233;SDS011;12365;43.554;1.388;2022-10-22T12:35:25;8.43;;;2.17;;
24233;SDS011;12365;43.554;1.388;2022-10-22T12:37:55;5.05;;;1.95;;
24233;SDS011;12365;43.554;1.388;2022-10-22T12:40:25;11.32;;;2.00;;
24233;SDS011;12365;43.554;1.388;2022-10-22T12:42:56;9.48;;;2.15;;
24233;SDS011;12365;43.554;1.388;2022-10-22T12:45:27;9.93;;;2.17;;
24233;SDS011;12365;43.554;1.388;2022-10-22T12:47:55;11.10;;;2.88;;
24233;SDS011;12365;43.554;1.388;2022-10-22T12:50:43;7.82;;;2.00;;
24233;SDS011;12365;43.554;1.388;2022-10-22T12:53:13;11.35;;;1.95;;
24233;SDS011;12365;43.554;1.388;2022-10-22T12:55:41;6.90;;;1.80;;
24233;SDS011;12365;43.554;1.388;2022-10-22T12:58:13;7.43;;;1.90;;
24233;SDS011;12365;43.554;1.388;2022-10-22T13:00:44;8.40;;;2.00;;
24233;SDS011;12365;43.554;1.388;2022-10-22T13:03:10;7.65;;;2.00;;
24233;SDS011;12365;43.554;1.388;2022-10-22T13:05:49;7.65;;;2.10;;
24233;SDS011;12365;43.554;1.388;2022-10-22T13:08:20;9.98;;;1.85;;
24233;SDS011;12365;43.554;1.388;2022-10-22T13:10:50;5.55;;;1.70;;
24233;SDS011;12365;43.554;1.388;2022-10-22T13:13:30;3.83;;;1.30;;
24233;SDS011;12365;43.554;1.388;2022-10-22T13:16:35;5.47;;;1.90;;
24233;SDS011;12365;43.554;1.388;2022-10-22T13:18:54;8.88;;;2.17;;
24233;SDS011;12365;43.554;1.388;2022-10-22T13:21:32;5.18;;;1.63;;
24233;SDS011;12365;43.554;1.388;2022-10-22T13:24:02;11.57;;;1.80;;
24233;SDS011;12365;43.554;1.388;2022-10-22T13:26:46;7.72;;;1.52;;
24233;SDS011;12365;43.554;1.388;2022-10-22T13:29:17;5.75;;;1.40;;
24233;SDS011;12365;43.554;1.388;2022-10-22T13:31:46;6.57;;;1.60;;
24233;SDS011;12365;43.554;1.388;2022-10-22T13:34:17;7.53;;;1.70;;
24233;SDS011;12365;43.554;1.388;2022-10-22T13:39:17;6.90;;;1.48;;
24233;SDS011;12365;43.554;1.388;2022-10-22T13:41:42;7.55;;;1.50;;
24233;SDS011;12365;43.554;1.388;2022-10-22T13:44:07;5.00;;;1.40;;
24233;SDS011;12365;43.554;1.388;2022-10-22T13:46:33;7.00;;;1.60;;
24233;SDS011;12365;43.554;1.388;2022-10-22T13:49:04;6.97;;;1.75;;
24233;SDS011;12365;43.554;1.388;2022-10-22T13:51:33;4.50;;;1.40;;
24233;SDS011;12365;43.554;1.388;2022-10-22T13:53:59;7.20;;;1.40;;
24233;SDS011;12365;43.554;1.388;2022-10-22T13:56:25;6.40;;;1.50;;
24233;SDS011;12365;43.554;1.388;2022-10-22T13:58:51;5.95;;;1.70;;
24233;SDS011;12365;43.554;1.388;2022-10-22T14:01:21;6.70;;;1.60;;
24233;SDS011;12365;43.554;1.388;2022-10-22T14:03:49;4.95;;;1.20;;
24233;SDS011;12365;43.554;1.388;2022-10-22T14:06:17;7.13;;;1.50;;
24233;SDS011;12365;43.554;1.388;2022-10-22T14:08:44;4.75;;;1.67;;
24233;SDS011;12365;43.554;1.388;2022-10-22T14:11:12;8.30;;;1.60;;
24233;SDS011;12365;43.554;1.388;2022-10-22T14:13:38;7.25;;;1.80;;
24233;SDS011;12365;43.554;1.388;2022-10-22T14:16:05;8.40;;;1.70;;
24233;SDS011;12365;43.554;1.388;2022-10-22T14:18:32;6.53;;;1.40;;
24233;SDS011;12365;43.554;1.388;2022-10-22T14:21:00;6.22;;;1.75;;
24233;SDS011;12365;43.554;1.388;2022-10-22T14:23:32;7.88;;;1.60;;
24233;SDS011;12365;43.554;1.388;2022-10-22T14:25:59;8.48;;;1.48;;
24233;SDS011;12365;43.554;1.388;2022-10-22T14:28:25;4.00;;;1.48;;
24233;SDS011;12365;43.554;1.388;2022-10-22T14:30:50;5.93;;;1.45;;
24233;SDS011;12365;43.554;1.388;2022-10-22T14:33:23;7.22;;;1.80;;
24233;SDS011;12365;43.554;1.388;2022-10-22T14:35:51;5.22;;;1.35;;
24233;SDS011;12365;43.554;1.388;2022-10-22T14:38:17;7.85;;;1.52;;
24233;SDS011;12365;43.554;1.388;2022-10-22T14:40:42;4.90;;;1.38;;
24233;SDS011;12365;43.554;1.388;2022-10-22T14:43:10;5.22;;;1.67;;
24233;SDS011;12365;43.554;1.388;2022-10-22T14:45:38;4.82;;;1.65;;
24233;SDS011;12365;43.554;1.388;2022-10-22T14:48:03;5.15;;;1.80;;
24233;SDS011;12365;43.554;1.388;2022-10-22T14:50:30;5.85;;;1.48;;
24233;SDS011;12365;43.554;1.388;2022-10-22T14:52:55;6.13;;;1.65;;
24233;SDS011;12365;43.554;1.388;2022-10-22T14:55:22;5.05;;;1.50;;
24233;SDS011;12365;43.554;1.388;2022-10-22T14:57:50;5.78;;;1.85;;
24233;SDS011;12365;43.554;1.388;2022-10-22T15:00:15;7.95;;;1.90;;
24233;SDS011;12365;43.554;1.388;2022-10-22T15:02:42;5.50;;;1.65;;
24233;SDS011;12365;43.554;1.388;2022-10-22T15:05:08;7.38;;;2.20;;
24233;SDS011;12365;43.554;1.388;2022-10-22T15:07:33;10.82;;;1.90;;
24233;SDS011;12365;43.554;1.388;2022-10-22T15:09:59;5.82;;;1.80;;
24233;SDS011;12365;43.554;1.388;2022-10-22T15:12:24;7.20;;;1.60;;
24233;SDS011;12365;43.554;1.388;2022-10-22T15:14:50;5.90;;;1.80;;
24233;SDS011;12365;43.554;1.388;2022-10-22T15:17:16;10.27;;;1.75;;
24233;SDS011;12365;43.554;1.388;2022-10-22T15:19:42;5.82;;;1.60;;
24233;SDS011;12365;43.554;1.388;2022-10-22T15:22:08;5.47;;;1.50;;
24233;SDS011;12365;43.554;1.388;2022-10-22T15:24:37;5.70;;;1.80;;
24233;SDS011;12365;43.554;1.388;2022-10-22T15:27:03;7.53;;;1.80;;
24233;SDS011;12365;43.554;1.388;2022-10-22T15:29:29;8.75;;;1.85;;
24233;SDS011;12365;43.554;1.388;2022-10-22T15:31:56;7.00;;;2.33;;
24233;SDS011;12365;43.554;1.388;2022-10-22T15:34:24;6.10;;;1.77;;
24233;SDS011;12365;43.554;1.388;2022-10-22T15:37:09;7.28;;;2.00;;
24233;SDS011;12365;43.554;1.388;2022-10-22T15:39:40;7.78;;;1.92;;
24233;SDS011;12365;43.554;1.388;2022-10-22T15:42:06;9.90;;;2.28;;
24233;SDS011;12365;43.554;1.388;2022-10-22T15:44:32;7.07;;;2.17;;
24233;SDS011;12365;43.554;1.388;2022-10-22T15:46:58;11.68;;;2.55;;
24233;SDS011;12365;43.554;1.388;2022-10-22T15:49:24;8.07;;;2.03;;
24233;SDS011;12365;43.554;1.388;2022-10-22T15:51:51;9.23;;;2.63;;
24233;SDS011;12365;43.554;1.388;2022-10-22T15:54:18;9.00;;;2.20;;
24233;SDS011;12365;43.554;1.388;2022-10-22T15:56:45;7.82;;;2.20;;
24233;SDS011;12365;43.554;1.388;2022-10-22T15:59:11;8.07;;;2.30;;
24233;SDS011;12365;43.554;1.388;2022-10-22T16:01:39;8.50;;;2.70;;
24233;SDS011;12365;43.554;1.388;2022-10-22T16:04:05;10.27;;;2.63;;
24233;SDS011;12365;43.554;1.388;2022-10-22T16:09:03;9.52;;;2.42;;
24233;SDS011;12365;43.554;1.388;2022-10-22T16:11:30;12.65;;;2.60;;
24233;SDS011;12365;43.554;1.388;2022-10-22T16:13:57;8.43;;;2.20;;
24233;SDS011;12365;43.554;1.388;2022-10-22T16:16:24;10.65;;;2.25;;
24233;SDS011;12365;43.554;1.388;2022-10-22T16:18:51;8.15;;;2.30;;
24233;SDS011;12365;43.554;1.388;2022-10-22T16:21:17;12.10;;;2.50;;
24233;SDS011;12365;43.554;1.388;2022-10-22T16:23:44;6.80;;;2.40;;
24233;SDS011;12365;43.554;1.388;2022-10-22T16:26:09;9.55;;;2.67;;
24233;SDS011;12365;43.554;1.388;2022-10-22T16:28:36;10.02;;;3.00;;